sensor_id;sensor_type;location;lat;lon;timestamp;P1;durP1;ratioP1;P2;durP2;ratioP2
50429;SDS011;36359;41.556;-8.418;2023-02-22T00:01:03;34.88;;;15.48;;
50429;SDS011;36359;41.556;-8.418;2023-02-22T00:03:46;29.27;;;14.63;;
50429;SDS011;36359;41.556;-8.418;2023-02-22T00:06:15;24.02;;;12.75;;
50429;SDS011;36359;41.556;-8.418;2023-02-22T00:08:43;29.23;;;12.73;;
50429;SDS011;36359;41.556;-8.418;2023-02-22T00:11:12;23.63;;;12.77;;
50429;SDS011;36359;41.556;-8.418;2023-02-22T00:13:38;28.95;;;12.50;;
50429;SDS011;36359;41.556;-8.418;2023-02-22T00:16:08;28.15;;;13.27;;
50429;SDS011;36359;41.556;-8.418;2023-02-22T00:18:37;25.92;;;13.38;;
50429;SDS011;36359;41.556;-8.418;2023-02-22T00:21:04;27.27;;;12.55;;
50429;SDS011;36359;41.556;-8.418;2023-02-22T00:23:34;25.65;;;12.85;;
50429;SDS011;36359;41.556;-8.418;2023-02-22T00:26:04;27.75;;;12.68;;
50429;SDS011;36359;41.556;-8.418;2023-02-22T00:28:37;27.80;;;16.10;;
50429;SDS011;36359;41.556;-8.418;2023-02-22T00:31:06;27.90;;;15.57;;
50429;SDS011;36359;41.556;-8.418;2023-02-22T00:33:33;27.95;;;15.23;;
50429;SDS011;36359;41.556;-8.418;2023-02-22T00:36:00;27.77;;;15.13;;
50429;SDS011;36359;41.556;-8.418;2023-02-22T00:38:26;31.08;;;15.07;;
50429;SDS011;36359;41.556;-8.418;2023-02-22T00:40:53;27.23;;;12.67;;
50429;SDS011;36359;41.556;-8.418;2023-02-22T00:43:19;28.92;;;16.48;;
50429;SDS011;36359;41.556;-8.418;2023-02-22T00:45:46;29.60;;;19.70;;
50429;SDS011;36359;41.556;-8.418;2023-02-22T00:48:13;37.70;;;22.88;;
50429;SDS011;36359;41.556;-8.418;2023-02-22T00:50:39;38.55;;;23.20;;
50429;SDS011;36359;41.556;-8.418;2023-02-22T00:53:05;42.35;;;26.67;;
50429;SDS011;36359;41.556;-8.418;2023-02-22T00:55:33;46.63;;;27.87;;
50429;SDS011;36359;41.556;-8.418;2023-02-22T00:58:00;36.45;;;23.77;;
50429;SDS011;36359;41.556;-8.418;2023-02-22T01:00:29;29.63;;;17.17;;
50429;SDS011;36359;41.556;-8.418;2023-02-22T01:03:00;33.13;;;18.50;;
50429;SDS011;36359;41.556;-8.418;2023-02-22T01:05:27;26.92;;;17.58;;
50429;SDS011;36359;41.556;-8.418;2023-02-22T01:07:54;29.52;;;17.42;;
50429;SDS011;36359;41.556;-8.418;2023-02-22T01:10:22;32.30;;;18.10;;
50429;SDS011;36359;41.556;-8.418;2023-02-22T01:12:49;33.00;;;17.97;;
50429;SDS011;36359;41.556;-8.418;2023-02-22T01:15:20;36.97;;;18.65;;
50429;SDS011;36359;41.556;-8.418;2023-02-22T01:17:48;31.63;;;17.77;;
50429;SDS011;36359;41.556;-8.418;2023-02-22T01:20:15;36.43;;;18.87;;
50429;SDS011;36359;41.556;-8.418;2023-02-22T01:22:45;38.00;;;18.98;;
50429;SDS011;36359;41.556;-8.418;2023-02-22T01:25:17;34.83;;;18.52;;
50429;SDS011;36359;41.556;-8.418;2023-02-22T01:27:44;32.53;;;18.90;;
50429;SDS011;36359;41.556;-8.418;2023-02-22T01:30:12;32.90;;;17.00;;
50429;SDS011;36359;41.556;-8.418;2023-02-22T01:32:39;28.73;;;16.58;;
50429;SDS011;36359;41.556;-8.418;2023-02-22T01:35:12;33.70;;;16.60;;
50429;SDS011;36359;41.556;-8.418;2023-02-22T01:37:43;35.90;;;17.50;;
50429;SDS011;36359;41.556;-8.418;2023-02-22T01:40:13;29.47;;;17.20;;
50429;SDS011;36359;41.556;-8.418;2023-02-22T01:42:46;26.15;;;15.88;;
50429;SDS011;36359;41.556;-8.418;2023-02-22T01:48:02;36.97;;;16.75;;
50429;SDS011;36359;41.556;-8.418;2023-02-22T01:50:42;32.00;;;16.53;;
50429;SDS011;36359;41.556;-8.418;2023-02-22T01:53:15;35.47;;;17.73;;
50429;SDS011;36359;41.556;-8.418;2023-02-22T01:55:43;32.38;;;15.10;;
50429;SDS011;36359;41.556;-8.418;2023-02-22T01:58:10;29.90;;;15.57;;
50429;SDS011;36359;41.556;-8.418;2023-02-22T02:00:37;28.43;;;15.40;;
50429;SDS011;36359;41.556;-8.418;2023-02-22T02:03:06;29.25;;;15.68;;
50429;SDS011;36359;41.556;-8.418;2023-02-22T02:05:42;27.13;;;15.97;;
50429;SDS011;36359;41.556;-8.418;2023-02-22T02:11:14;34.10;;;16.52;;
50429;SDS011;36359;41.556;-8.418;2023-02-22T02:13:42;28.25;;;15.48;;
50429;SDS011;36359;41.556;-8.418;2023-02-22T02:16:07;24.15;;;14.88;;
50429;SDS011;36359;41.556;-8.418;2023-02-22T02:18:33;28.80;;;15.57;;
50429;SDS011;36359;41.556;-8.418;2023-02-22T02:29:42;24.60;;;13.47;;
50429;SDS011;36359;41.556;-8.418;2023-02-22T02:38:10;21.80;;;13.35;;
50429;SDS011;36359;41.556;-8.418;2023-02-22T02:44:02;24.52;;;13.70;;
50429;SDS011;36359;41.556;-8.418;2023-02-22T02:49:11;39.97;;;25.87;;
50429;SDS011;36359;41.556;-8.418;2023-02-22T02:51:44;45.70;;;29.67;;
50429;SDS011;36359;41.556;-8.418;2023-02-22T02:54:14;53.40;;;32.87;;
50429;SDS011;36359;41.556;-8.418;2023-02-22T02:56:42;49.87;;;33.00;;
50429;SDS011;36359;41.556;-8.418;2023-02-22T02:59:28;54.63;;;34.77;;
50429;SDS011;36359;41.556;-8.418;2023-02-22T03:07:32;54.00;;;32.27;;
50429;SDS011;36359;41.556;-8.418;2023-02-22T03:10:17;37.07;;;21.23;;
50429;SDS011;36359;41.556;-8.418;2023-02-22T03:13:08;38.30;;;22.97;;
50429;SDS011;36359;41.556;-8.418;2023-02-22T03:15:49;36.37;;;22.87;;
50429;SDS011;36359;41.556;-8.418;2023-02-22T03:18:27;36.93;;;22.93;;
50429;SDS011;36359;41.556;-8.418;2023-02-22T03:26:16;28.20;;;18.17;;
50429;SDS011;36359;41.556;-8.418;2023-02-22T03:28:52;33.37;;;20.63;;
50429;SDS011;36359;41.556;-8.418;2023-02-22T03:31:30;35.40;;;21.23;;
50429;SDS011;36359;41.556;-8.418;2023-02-22T03:34:07;33.57;;;20.87;;
50429;SDS011;36359;41.556;-8.418;2023-02-22T03:36:44;38.05;;;23.45;;
50429;SDS011;36359;41.556;-8.418;2023-02-22T03:39:14;36.57;;;20.77;;
50429;SDS011;36359;41.556;-8.418;2023-02-22T03:41:46;38.83;;;22.63;;
50429;SDS011;36359;41.556;-8.418;2023-02-22T03:44:21;40.03;;;24.07;;
50429;SDS011;36359;41.556;-8.418;2023-02-22T03:46:51;37.80;;;23.05;;
50429;SDS011;36359;41.556;-8.418;2023-02-22T03:49:28;37.20;;;23.25;;
50429;SDS011;36359;41.556;-8.418;2023-02-22T03:51:59;40.30;;;23.87;;
50429;SDS011;36359;41.556;-8.418;2023-02-22T03:54:28;39.67;;;23.30;;
50429;SDS011;36359;41.556;-8.418;2023-02-22T03:56:59;43.70;;;25.53;;
50429;SDS011;36359;41.556;-8.418;2023-02-22T03:59:35;41.13;;;24.27;;
50429;SDS011;36359;41.556;-8.418;2023-02-22T04:02:02;36.00;;;23.50;;
50429;SDS011;36359;41.556;-8.418;2023-02-22T04:04:27;41.50;;;24.30;;
50429;SDS011;36359;41.556;-8.418;2023-02-22T04:06:54;35.77;;;23.77;;
50429;SDS011;36359;41.556;-8.418;2023-02-22T04:09:20;38.93;;;23.53;;
50429;SDS011;36359;41.556;-8.418;2023-02-22T04:11:46;35.93;;;23.60;;
50429;SDS011;36359;41.556;-8.418;2023-02-22T04:14:13;30.33;;;21.43;;
50429;SDS011;36359;41.556;-8.418;2023-02-22T04:16:39;39.40;;;24.53;;
50429;SDS011;36359;41.556;-8.418;2023-02-22T04:19:07;33.07;;;22.33;;
50429;SDS011;36359;41.556;-8.418;2023-02-22T04:21:35;36.00;;;22.70;;
50429;SDS011;36359;41.556;-8.418;2023-02-22T04:24:01;33.03;;;23.03;;
50429;SDS011;36359;41.556;-8.418;2023-02-22T04:26:27;36.47;;;22.50;;
50429;SDS011;36359;41.556;-8.418;2023-02-22T04:28:58;37.13;;;23.50;;
50429;SDS011;36359;41.556;-8.418;2023-02-22T04:31:27;37.17;;;24.20;;
50429;SDS011;36359;41.556;-8.418;2023-02-22T04:33:55;36.47;;;23.53;;
50429;SDS011;36359;41.556;-8.418;2023-02-22T04:36:26;38.15;;;23.73;;
50429;SDS011;36359;41.556;-8.418;2023-02-22T04:38:52;33.27;;;23.40;;
50429;SDS011;36359;41.556;-8.418;2023-02-22T04:41:19;36.33;;;22.90;;
50429;SDS011;36359;41.556;-8.418;2023-02-22T04:43:45;32.55;;;19.70;;
50429;SDS011;36359;41.556;-8.418;2023-02-22T04:46:20;36.63;;;24.53;;
50429;SDS011;36359;41.556;-8.418;2023-02-22T04:48:46;43.27;;;28.87;;
50429;SDS011;36359;41.556;-8.418;2023-02-22T04:51:14;45.37;;;30.97;;
50429;SDS011;36359;41.556;-8.418;2023-02-22T04:53:51;42.20;;;29.67;;
50429;SDS011;36359;41.556;-8.418;2023-02-22T04:56:17;49.07;;;31.33;;
50429;SDS011;36359;41.556;-8.418;2023-02-22T04:58:44;36.70;;;26.30;;
50429;SDS011;36359;41.556;-8.418;2023-02-22T05:01:10;44.83;;;28.27;;
50429;SDS011;36359;41.556;-8.418;2023-02-22T05:03:36;43.43;;;29.43;;
50429;SDS011;36359;41.556;-8.418;2023-02-22T05:06:02;43.10;;;28.63;;
50429;SDS011;36359;41.556;-8.418;2023-02-22T05:08:28;42.37;;;29.90;;
50429;SDS011;36359;41.556;-8.418;2023-02-22T05:10:54;44.80;;;31.57;;
50429;SDS011;36359;41.556;-8.418;2023-02-22T05:13:20;44.85;;;31.42;;
50429;SDS011;36359;41.556;-8.418;2023-02-22T05:15:45;51.50;;;31.97;;
50429;SDS011;36359;41.556;-8.418;2023-02-22T05:18:12;42.83;;;29.60;;
50429;SDS011;36359;41.556;-8.418;2023-02-22T05:20:38;44.93;;;31.77;;
50429;SDS011;36359;41.556;-8.418;2023-02-22T05:23:04;49.70;;;35.47;;
50429;SDS011;36359;41.556;-8.418;2023-02-22T05:25:30;54.27;;;36.67;;
50429;SDS011;36359;41.556;-8.418;2023-02-22T05:28:03;54.83;;;36.63;;
50429;SDS011;36359;41.556;-8.418;2023-02-22T05:30:33;52.20;;;35.13;;
50429;SDS011;36359;41.556;-8.418;2023-02-22T05:33:00;46.90;;;35.33;;
50429;SDS011;36359;41.556;-8.418;2023-02-22T05:35:26;49.40;;;33.80;;
50429;SDS011;36359;41.556;-8.418;2023-02-22T05:37:53;49.43;;;33.40;;
50429;SDS011;36359;41.556;-8.418;2023-02-22T05:40:20;48.80;;;31.87;;
50429;SDS011;36359;41.556;-8.418;2023-02-22T05:42:47;43.20;;;30.30;;
50429;SDS011;36359;41.556;-8.418;2023-02-22T05:45:15;52.07;;;29.60;;
50429;SDS011;36359;41.556;-8.418;2023-02-22T05:47:42;46.53;;;32.13;;
50429;SDS011;36359;41.556;-8.418;2023-02-22T05:50:09;43.47;;;32.13;;
50429;SDS011;36359;41.556;-8.418;2023-02-22T05:52:35;47.03;;;31.03;;
50429;SDS011;36359;41.556;-8.418;2023-02-22T05:55:01;46.07;;;29.67;;
50429;SDS011;36359;41.556;-8.418;2023-02-22T05:57:26;48.10;;;30.10;;
50429;SDS011;36359;41.556;-8.418;2023-02-22T05:59:52;49.43;;;31.43;;
50429;SDS011;36359;41.556;-8.418;2023-02-22T06:02:18;51.37;;;31.00;;
50429;SDS011;36359;41.556;-8.418;2023-02-22T06:07:11;46.57;;;26.93;;
50429;SDS011;36359;41.556;-8.418;2023-02-22T06:09:37;42.20;;;29.67;;
50429;SDS011;36359;41.556;-8.418;2023-02-22T06:12:03;43.47;;;26.10;;
50429;SDS011;36359;41.556;-8.418;2023-02-22T06:14:29;46.67;;;28.23;;
50429;SDS011;36359;41.556;-8.418;2023-02-22T06:16:55;42.63;;;29.53;;
50429;SDS011;36359;41.556;-8.418;2023-02-22T06:19:22;40.13;;;26.00;;
50429;SDS011;36359;41.556;-8.418;2023-02-22T06:21:52;35.63;;;24.87;;
50429;SDS011;36359;41.556;-8.418;2023-02-22T06:24:24;38.23;;;25.27;;
50429;SDS011;36359;41.556;-8.418;2023-02-22T06:26:58;31.05;;;21.55;;
50429;SDS011;36359;41.556;-8.418;2023-02-22T06:29:26;35.13;;;22.63;;
50429;SDS011;36359;41.556;-8.418;2023-02-22T06:31:53;34.83;;;21.30;;
50429;SDS011;36359;41.556;-8.418;2023-02-22T06:34:20;30.03;;;21.03;;
50429;SDS011;36359;41.556;-8.418;2023-02-22T06:36:46;29.08;;;18.27;;
50429;SDS011;36359;41.556;-8.418;2023-02-22T06:39:13;24.97;;;15.77;;
50429;SDS011;36359;41.556;-8.418;2023-02-22T06:41:43;29.90;;;15.05;;
50429;SDS011;36359;41.556;-8.418;2023-02-22T06:44:10;24.30;;;13.70;;
50429;SDS011;36359;41.556;-8.418;2023-02-22T06:46:38;21.05;;;10.45;;
50429;SDS011;36359;41.556;-8.418;2023-02-22T06:49:04;23.13;;;11.13;;
50429;SDS011;36359;41.556;-8.418;2023-02-22T06:51:34;22.90;;;9.70;;
50429;SDS011;36359;41.556;-8.418;2023-02-22T06:54:01;18.90;;;9.13;;
50429;SDS011;36359;41.556;-8.418;2023-02-22T06:56:28;16.13;;;7.20;;
50429;SDS011;36359;41.556;-8.418;2023-02-22T06:58:54;17.20;;;6.50;;
50429;SDS011;36359;41.556;-8.418;2023-02-22T07:01:19;20.15;;;8.63;;
50429;SDS011;36359;41.556;-8.418;2023-02-22T07:03:47;23.03;;;9.77;;
50429;SDS011;36359;41.556;-8.418;2023-02-22T07:06:13;22.07;;;12.63;;
50429;SDS011;36359;41.556;-8.418;2023-02-22T07:08:39;21.60;;;10.40;;
50429;SDS011;36359;41.556;-8.418;2023-02-22T07:11:05;26.70;;;7.40;;
50429;SDS011;36359;41.556;-8.418;2023-02-22T07:13:30;17.77;;;6.30;;
50429;SDS011;36359;41.556;-8.418;2023-02-22T07:15:56;14.43;;;5.97;;
50429;SDS011;36359;41.556;-8.418;2023-02-22T07:18:23;15.83;;;6.33;;
50429;SDS011;36359;41.556;-8.418;2023-02-22T07:20:49;16.63;;;6.13;;
50429;SDS011;36359;41.556;-8.418;2023-02-22T07:23:15;18.23;;;6.37;;
50429;SDS011;36359;41.556;-8.418;2023-02-22T07:25:41;17.53;;;7.17;;
50429;SDS011;36359;41.556;-8.418;2023-02-22T07:28:08;18.93;;;6.10;;
50429;SDS011;36359;41.556;-8.418;2023-02-22T07:30:35;21.20;;;6.83;;
50429;SDS011;36359;41.556;-8.418;2023-02-22T07:33:02;17.57;;;6.03;;
50429;SDS011;36359;41.556;-8.418;2023-02-22T07:35:33;16.97;;;6.00;;
50429;SDS011;36359;41.556;-8.418;2023-02-22T07:38:04;17.17;;;5.63;;
50429;SDS011;36359;41.556;-8.418;2023-02-22T07:40:32;14.43;;;5.40;;
50429;SDS011;36359;41.556;-8.418;2023-02-22T07:45:26;20.90;;;6.77;;
50429;SDS011;36359;41.556;-8.418;2023-02-22T07:47:53;21.63;;;6.60;;
50429;SDS011;36359;41.556;-8.418;2023-02-22T07:50:20;15.17;;;6.10;;
50429;SDS011;36359;41.556;-8.418;2023-02-22T07:52:48;14.93;;;5.77;;
50429;SDS011;36359;41.556;-8.418;2023-02-22T07:55:17;18.23;;;6.67;;
50429;SDS011;36359;41.556;-8.418;2023-02-22T07:57:45;16.33;;;6.07;;
50429;SDS011;36359;41.556;-8.418;2023-02-22T08:00:11;19.20;;;6.47;;
50429;SDS011;36359;41.556;-8.418;2023-02-22T08:02:40;15.17;;;6.47;;
50429;SDS011;36359;41.556;-8.418;2023-02-22T08:05:07;17.23;;;6.70;;
50429;SDS011;36359;41.556;-8.418;2023-02-22T08:07:38;24.60;;;6.93;;
50429;SDS011;36359;41.556;-8.418;2023-02-22T08:10:04;19.90;;;10.83;;
50429;SDS011;36359;41.556;-8.418;2023-02-22T08:12:35;23.97;;;10.20;;
50429;SDS011;36359;41.556;-8.418;2023-02-22T08:15:02;19.83;;;8.63;;
50429;SDS011;36359;41.556;-8.418;2023-02-22T08:17:29;20.03;;;7.00;;
50429;SDS011;36359;41.556;-8.418;2023-02-22T08:19:55;17.33;;;6.27;;
50429;SDS011;36359;41.556;-8.418;2023-02-22T08:22:21;13.67;;;5.43;;
50429;SDS011;36359;41.556;-8.418;2023-02-22T08:24:48;17.17;;;6.67;;
50429;SDS011;36359;41.556;-8.418;2023-02-22T08:27:28;13.68;;;5.18;;
50429;SDS011;36359;41.556;-8.418;2023-02-22T08:29:55;18.07;;;5.47;;
50429;SDS011;36359;41.556;-8.418;2023-02-22T08:32:21;19.50;;;6.17;;
50429;SDS011;36359;41.556;-8.418;2023-02-22T08:34:47;15.13;;;6.13;;
50429;SDS011;36359;41.556;-8.418;2023-02-22T08:37:14;12.53;;;4.73;;
50429;SDS011;36359;41.556;-8.418;2023-02-22T08:39:40;12.60;;;4.80;;
50429;SDS011;36359;41.556;-8.418;2023-02-22T08:42:06;13.47;;;4.77;;
50429;SDS011;36359;41.556;-8.418;2023-02-22T08:44:34;11.90;;;4.73;;
50429;SDS011;36359;41.556;-8.418;2023-02-22T08:47:03;12.17;;;4.90;;
50429;SDS011;36359;41.556;-8.418;2023-02-22T08:49:30;12.73;;;4.43;;
50429;SDS011;36359;41.556;-8.418;2023-02-22T08:51:55;15.17;;;5.33;;
50429;SDS011;36359;41.556;-8.418;2023-02-22T08:54:21;16.27;;;5.73;;
50429;SDS011;36359;41.556;-8.418;2023-02-22T08:56:48;14.07;;;5.37;;
50429;SDS011;36359;41.556;-8.418;2023-02-22T08:59:14;9.77;;;6.35;;
50429;SDS011;36359;41.556;-8.418;2023-02-22T09:01:40;17.23;;;7.15;;
50429;SDS011;36359;41.556;-8.418;2023-02-22T09:04:06;14.48;;;6.55;;
50429;SDS011;36359;41.556;-8.418;2023-02-22T09:06:32;15.30;;;7.40;;
50429;SDS011;36359;41.556;-8.418;2023-02-22T09:08:58;12.82;;;6.50;;
50429;SDS011;36359;41.556;-8.418;2023-02-22T09:11:24;24.63;;;7.35;;
50429;SDS011;36359;41.556;-8.418;2023-02-22T09:13:49;19.17;;;7.03;;
50429;SDS011;36359;41.556;-8.418;2023-02-22T09:16:15;11.63;;;6.05;;
50429;SDS011;36359;41.556;-8.418;2023-02-22T09:18:41;17.63;;;6.20;;
50429;SDS011;36359;41.556;-8.418;2023-02-22T09:21:07;16.17;;;5.73;;
50429;SDS011;36359;41.556;-8.418;2023-02-22T09:23:32;16.67;;;4.00;;
50429;SDS011;36359;41.556;-8.418;2023-02-22T09:25:59;9.43;;;2.77;;
50429;SDS011;36359;41.556;-8.418;2023-02-22T09:28:28;33.63;;;5.97;;
50429;SDS011;36359;41.556;-8.418;2023-02-22T09:30:53;23.53;;;5.87;;
50429;SDS011;36359;41.556;-8.418;2023-02-22T09:33:19;39.40;;;6.40;;
50429;SDS011;36359;41.556;-8.418;2023-02-22T09:35:46;35.90;;;6.17;;
50429;SDS011;36359;41.556;-8.418;2023-02-22T09:38:20;55.30;;;7.40;;
50429;SDS011;36359;41.556;-8.418;2023-02-22T09:40:49;48.70;;;6.07;;
50429;SDS011;36359;41.556;-8.418;2023-02-22T09:46:00;36.28;;;5.25;;
50429;SDS011;36359;41.556;-8.418;2023-02-22T09:49:01;22.80;;;6.75;;
50429;SDS011;36359;41.556;-8.418;2023-02-22T09:54:26;32.72;;;7.75;;
50429;SDS011;36359;41.556;-8.418;2023-02-22T09:56:57;17.37;;;5.83;;
50429;SDS011;36359;41.556;-8.418;2023-02-22T09:59:54;29.08;;;5.45;;
50429;SDS011;36359;41.556;-8.418;2023-02-22T10:02:29;21.95;;;5.90;;
50429;SDS011;36359;41.556;-8.418;2023-02-22T10:05:12;32.50;;;7.47;;
50429;SDS011;36359;41.556;-8.418;2023-02-22T10:08:03;23.92;;;8.27;;
50429;SDS011;36359;41.556;-8.418;2023-02-22T10:10:35;23.45;;;10.80;;
50429;SDS011;36359;41.556;-8.418;2023-02-22T10:26:54;15.98;;;7.15;;
50429;SDS011;36359;41.556;-8.418;2023-02-22T10:29:29;16.37;;;6.70;;
50429;SDS011;36359;41.556;-8.418;2023-02-22T10:32:13;21.13;;;6.63;;
50429;SDS011;36359;41.556;-8.418;2023-02-22T10:34:45;16.45;;;7.28;;
50429;SDS011;36359;41.556;-8.418;2023-02-22T10:37:20;16.75;;;7.32;;
50429;SDS011;36359;41.556;-8.418;2023-02-22T10:40:02;29.95;;;8.75;;
50429;SDS011;36359;41.556;-8.418;2023-02-22T10:42:37;15.07;;;6.65;;
50429;SDS011;36359;41.556;-8.418;2023-02-22T10:45:03;17.48;;;7.03;;
50429;SDS011;36359;41.556;-8.418;2023-02-22T10:47:31;13.77;;;5.78;;
50429;SDS011;36359;41.556;-8.418;2023-02-22T10:49:58;14.73;;;5.38;;
50429;SDS011;36359;41.556;-8.418;2023-02-22T10:54:57;18.07;;;4.53;;
50429;SDS011;36359;41.556;-8.418;2023-02-22T10:57:25;13.10;;;4.30;;
50429;SDS011;36359;41.556;-8.418;2023-02-22T11:02:55;10.63;;;3.40;;
50429;SDS011;36359;41.556;-8.418;2023-02-22T11:05:30;13.25;;;5.47;;
50429;SDS011;36359;41.556;-8.418;2023-02-22T11:08:45;13.57;;;4.35;;
50429;SDS011;36359;41.556;-8.418;2023-02-22T11:11:01;12.38;;;4.28;;
50429;SDS011;36359;41.556;-8.418;2023-02-22T11:13:43;11.80;;;4.50;;
50429;SDS011;36359;41.556;-8.418;2023-02-22T11:19:26;9.95;;;3.72;;
50429;SDS011;36359;41.556;-8.418;2023-02-22T11:21:49;12.95;;;5.03;;
50429;SDS011;36359;41.556;-8.418;2023-02-22T11:24:17;12.40;;;3.17;;
50429;SDS011;36359;41.556;-8.418;2023-02-22T11:26:46;14.10;;;4.38;;
50429;SDS011;36359;41.556;-8.418;2023-02-22T11:29:18;11.25;;;3.83;;
50429;SDS011;36359;41.556;-8.418;2023-02-22T11:31:48;9.02;;;5.13;;
50429;SDS011;36359;41.556;-8.418;2023-02-22T11:34:25;13.05;;;4.82;;
50429;SDS011;36359;41.556;-8.418;2023-02-22T11:37:14;11.80;;;4.43;;
50429;SDS011;36359;41.556;-8.418;2023-02-22T11:40:14;14.93;;;4.70;;
50429;SDS011;36359;41.556;-8.418;2023-02-22T11:42:44;15.38;;;5.13;;
50429;SDS011;36359;41.556;-8.418;2023-02-22T11:45:14;11.95;;;4.60;;
50429;SDS011;36359;41.556;-8.418;2023-02-22T11:47:46;10.57;;;4.10;;
50429;SDS011;36359;41.556;-8.418;2023-02-22T11:50:28;16.52;;;4.93;;
50429;SDS011;36359;41.556;-8.418;2023-02-22T12:01:15;16.38;;;5.30;;
50429;SDS011;36359;41.556;-8.418;2023-02-22T12:04:02;11.98;;;5.18;;
50429;SDS011;36359;41.556;-8.418;2023-02-22T12:12:14;15.05;;;4.78;;
50429;SDS011;36359;41.556;-8.418;2023-02-22T12:17:48;9.93;;;4.63;;
50429;SDS011;36359;41.556;-8.418;2023-02-22T12:20:31;13.00;;;5.25;;
50429;SDS011;36359;41.556;-8.418;2023-02-22T12:26:34;8.20;;;3.95;;
50429;SDS011;36359;41.556;-8.418;2023-02-22T12:29:05;10.50;;;4.20;;
50429;SDS011;36359;41.556;-8.418;2023-02-22T12:37:50;10.68;;;5.20;;
50429;SDS011;36359;41.556;-8.418;2023-02-22T12:43:38;11.55;;;4.75;;
50429;SDS011;36359;41.556;-8.418;2023-02-22T12:49:04;14.52;;;4.97;;
50429;SDS011;36359;41.556;-8.418;2023-02-22T12:51:43;14.85;;;5.35;;
50429;SDS011;36359;41.556;-8.418;2023-02-22T12:56:56;15.95;;;5.40;;
50429;SDS011;36359;41.556;-8.418;2023-02-22T12:59:36;13.55;;;6.82;;
50429;SDS011;36359;41.556;-8.418;2023-02-22T13:02:12;14.60;;;6.68;;
50429;SDS011;36359;41.556;-8.418;2023-02-22T13:04:51;14.95;;;7.90;;
50429;SDS011;36359;41.556;-8.418;2023-02-22T13:09:58;14.18;;;6.88;;
50429;SDS011;36359;41.556;-8.418;2023-02-22T13:12:39;13.52;;;6.93;;
50429;SDS011;36359;41.556;-8.418;2023-02-22T13:17:55;15.52;;;6.68;;
50429;SDS011;36359;41.556;-8.418;2023-02-22T13:20:47;13.20;;;5.45;;
50429;SDS011;36359;41.556;-8.418;2023-02-22T13:23:30;11.85;;;3.88;;
50429;SDS011;36359;41.556;-8.418;2023-02-22T13:26:05;8.05;;;2.65;;
50429;SDS011;36359;41.556;-8.418;2023-02-22T13:29:03;9.50;;;2.60;;
50429;SDS011;36359;41.556;-8.418;2023-02-22T13:31:38;8.10;;;2.95;;
50429;SDS011;36359;41.556;-8.418;2023-02-22T13:54:00;7.53;;;3.15;;
50429;SDS011;36359;41.556;-8.418;2023-02-22T13:56:31;8.00;;;3.08;;
50429;SDS011;36359;41.556;-8.418;2023-02-22T13:59:01;7.82;;;2.80;;
50429;SDS011;36359;41.556;-8.418;2023-02-22T14:01:35;9.75;;;3.42;;
50429;SDS011;36359;41.556;-8.418;2023-02-22T14:07:04;7.60;;;4.28;;
50429;SDS011;36359;41.556;-8.418;2023-02-22T14:18:17;6.93;;;2.65;;
50429;SDS011;36359;41.556;-8.418;2023-02-22T14:26:18;10.75;;;2.85;;
50429;SDS011;36359;41.556;-8.418;2023-02-22T14:28:55;10.05;;;3.58;;
50429;SDS011;36359;41.556;-8.418;2023-02-22T14:31:23;8.43;;;3.20;;
50429;SDS011;36359;41.556;-8.418;2023-02-22T14:33:53;9.07;;;3.50;;
50429;SDS011;36359;41.556;-8.418;2023-02-22T14:36:22;11.43;;;4.20;;
50429;SDS011;36359;41.556;-8.418;2023-02-22T14:39:02;9.43;;;2.92;;
50429;SDS011;36359;41.556;-8.418;2023-02-22T14:41:34;8.20;;;2.72;;
50429;SDS011;36359;41.556;-8.418;2023-02-22T14:44:02;6.15;;;2.72;;
50429;SDS011;36359;41.556;-8.418;2023-02-22T14:46:31;7.72;;;2.88;;
50429;SDS011;36359;41.556;-8.418;2023-02-22T14:49:04;7.40;;;2.90;;
50429;SDS011;36359;41.556;-8.418;2023-02-22T14:54:31;7.90;;;2.33;;
50429;SDS011;36359;41.556;-8.418;2023-02-22T14:57:26;6.35;;;2.38;;
50429;SDS011;36359;41.556;-8.418;2023-02-22T15:00:21;5.90;;;2.50;;
50429;SDS011;36359;41.556;-8.418;2023-02-22T15:02:56;6.75;;;3.50;;
50429;SDS011;36359;41.556;-8.418;2023-02-22T15:05:27;7.90;;;4.22;;
50429;SDS011;36359;41.556;-8.418;2023-02-22T15:10:47;7.80;;;2.92;;
50429;SDS011;36359;41.556;-8.418;2023-02-22T15:13:20;7.53;;;2.72;;
50429;SDS011;36359;41.556;-8.418;2023-02-22T15:20:57;8.75;;;3.92;;
50429;SDS011;36359;41.556;-8.418;2023-02-22T15:23:30;10.45;;;3.75;;
50429;SDS011;36359;41.556;-8.418;2023-02-22T15:26:06;8.02;;;3.40;;
50429;SDS011;36359;41.556;-8.418;2023-02-22T15:28:32;7.43;;;3.00;;
50429;SDS011;36359;41.556;-8.418;2023-02-22T15:33:49;6.50;;;2.90;;
50429;SDS011;36359;41.556;-8.418;2023-02-22T15:36:18;7.95;;;3.17;;
50429;SDS011;36359;41.556;-8.418;2023-02-22T15:38:51;7.55;;;3.95;;
50429;SDS011;36359;41.556;-8.418;2023-02-22T15:41:21;13.10;;;5.70;;
50429;SDS011;36359;41.556;-8.418;2023-02-22T15:43:58;10.73;;;4.28;;
50429;SDS011;36359;41.556;-8.418;2023-02-22T15:46:24;12.98;;;5.72;;
50429;SDS011;36359;41.556;-8.418;2023-02-22T15:49:03;8.60;;;2.92;;
50429;SDS011;36359;41.556;-8.418;2023-02-22T15:51:36;9.35;;;3.60;;
50429;SDS011;36359;41.556;-8.418;2023-02-22T15:54:04;6.10;;;2.30;;
50429;SDS011;36359;41.556;-8.418;2023-02-22T15:56:33;5.53;;;2.25;;
50429;SDS011;36359;41.556;-8.418;2023-02-22T15:59:10;6.85;;;2.40;;
50429;SDS011;36359;41.556;-8.418;2023-02-22T16:01:41;6.53;;;2.13;;
50429;SDS011;36359;41.556;-8.418;2023-02-22T16:04:20;4.80;;;1.67;;
50429;SDS011;36359;41.556;-8.418;2023-02-22T16:06:47;7.53;;;1.77;;
50429;SDS011;36359;41.556;-8.418;2023-02-22T16:09:16;5.65;;;2.05;;
50429;SDS011;36359;41.556;-8.418;2023-02-22T16:11:50;10.27;;;5.40;;
50429;SDS011;36359;41.556;-8.418;2023-02-22T16:19:38;2.58;;;1.05;;
50429;SDS011;36359;41.556;-8.418;2023-02-22T16:22:19;30.33;;;7.15;;
50429;SDS011;36359;41.556;-8.418;2023-02-22T16:24:52;27.50;;;6.27;;
50429;SDS011;36359;41.556;-8.418;2023-02-22T16:27:20;15.23;;;3.80;;
50429;SDS011;36359;41.556;-8.418;2023-02-22T16:30:01;9.03;;;3.13;;
50429;SDS011;36359;41.556;-8.418;2023-02-22T16:32:30;15.20;;;3.30;;
50429;SDS011;36359;41.556;-8.418;2023-02-22T16:34:55;6.03;;;2.00;;
50429;SDS011;36359;41.556;-8.418;2023-02-22T16:37:21;9.90;;;2.97;;
50429;SDS011;36359;41.556;-8.418;2023-02-22T16:39:47;7.23;;;2.47;;
50429;SDS011;36359;41.556;-8.418;2023-02-22T16:42:16;7.07;;;2.90;;
50429;SDS011;36359;41.556;-8.418;2023-02-22T16:44:51;7.10;;;3.50;;
50429;SDS011;36359;41.556;-8.418;2023-02-22T16:47:17;5.53;;;2.30;;
50429;SDS011;36359;41.556;-8.418;2023-02-22T16:49:46;4.73;;;1.47;;
50429;SDS011;36359;41.556;-8.418;2023-02-22T16:52:16;5.57;;;1.70;;
50429;SDS011;36359;41.556;-8.418;2023-02-22T16:54:42;5.17;;;1.87;;
50429;SDS011;36359;41.556;-8.418;2023-02-22T16:57:17;5.77;;;1.70;;
50429;SDS011;36359;41.556;-8.418;2023-02-22T16:59:45;5.17;;;2.03;;
50429;SDS011;36359;41.556;-8.418;2023-02-22T17:02:14;4.50;;;1.73;;
50429;SDS011;36359;41.556;-8.418;2023-02-22T17:04:40;4.13;;;1.77;;
50429;SDS011;36359;41.556;-8.418;2023-02-22T17:07:14;6.30;;;2.60;;
50429;SDS011;36359;41.556;-8.418;2023-02-22T17:09:41;5.70;;;2.23;;
50429;SDS011;36359;41.556;-8.418;2023-02-22T17:12:07;7.50;;;2.00;;
50429;SDS011;36359;41.556;-8.418;2023-02-22T17:14:33;6.37;;;2.60;;
50429;SDS011;36359;41.556;-8.418;2023-02-22T17:17:00;3.47;;;1.87;;
50429;SDS011;36359;41.556;-8.418;2023-02-22T17:19:26;4.20;;;1.90;;
50429;SDS011;36359;41.556;-8.418;2023-02-22T17:21:52;5.10;;;2.20;;
50429;SDS011;36359;41.556;-8.418;2023-02-22T17:24:18;4.93;;;2.20;;